createdAt,value
2019-06-08T00:01:49.210Z,99.90
2019-06-08T00:04:22.910Z,99.90
2019-06-08T00:06:53.128Z,99.90
2019-06-08T00:09:24.128Z,99.90
2019-06-08T00:11:54.340Z,99.90
2019-06-08T00:14:25.992Z,99.90
2019-06-08T00:16:57.767Z,99.90
2019-06-08T00:19:29.385Z,99.90
2019-06-08T00:21:59.427Z,99.90
2019-06-08T00:24:29.775Z,99.90
2019-06-08T00:26:59.990Z,99.90
2019-06-08T00:29:30.097Z,99.90
2019-06-08T00:32:00.120Z,99.90
2019-06-08T00:34:30.174Z,99.90
2019-06-08T00:37:00.215Z,99.90
2019-06-08T00:39:30.278Z,99.90
2019-06-08T00:42:00.388Z,99.90
2019-06-08T00:44:30.508Z,99.90
2019-06-08T00:47:02.697Z,99.90
2019-06-08T00:49:32.807Z,99.90
2019-06-08T00:52:02.883Z,99.90
2019-06-08T00:54:32.973Z,99.90
2019-06-08T00:57:03.153Z,99.90
2019-06-08T00:59:33.197Z,99.90
2019-06-08T01:02:03.308Z,99.90
2019-06-08T01:04:33.506Z,99.90
2019-06-08T01:07:03.780Z,99.90
2019-06-08T01:09:33.902Z,99.90
2019-06-08T01:12:04.193Z,99.90
2019-06-08T01:14:34.328Z,99.90
2019-06-08T01:17:04.463Z,99.90
2019-06-08T01:19:34.557Z,99.90
2019-06-08T01:22:05.305Z,99.90
2019-06-08T01:24:35.812Z,99.90
2019-06-08T01:27:05.910Z,99.90
2019-06-08T01:29:35.951Z,99.90
2019-06-08T01:32:06.070Z,99.90
2019-06-08T01:34:36.106Z,99.90
2019-06-08T01:37:06.678Z,99.90
2019-06-08T01:39:36.707Z,99.90
2019-06-08T01:42:07.098Z,99.90
2019-06-08T01:44:37.132Z,99.90
2019-06-08T01:47:07.266Z,99.90
2019-06-08T01:49:37.317Z,99.90
2019-06-08T01:52:07.347Z,99.90
2019-06-08T01:54:37.387Z,99.90
2019-06-08T01:57:07.479Z,99.90
2019-06-08T01:59:39.274Z,99.90
2019-06-08T02:02:09.595Z,99.90
2019-06-08T02:04:39.671Z,99.90
2019-06-08T02:07:12.047Z,99.90
2019-06-08T02:09:42.452Z,99.90
2019-06-08T02:12:12.681Z,99.90
2019-06-08T02:14:42.814Z,99.90
2019-06-08T02:17:12.924Z,99.90
2019-06-08T02:19:42.998Z,99.90
2019-06-08T02:22:13.204Z,99.90
2019-06-08T02:24:43.434Z,99.90
2019-06-08T02:27:13.566Z,99.90
2019-06-08T02:29:43.629Z,99.90
2019-06-08T02:32:15.093Z,99.90
2019-06-08T02:34:45.928Z,99.90
2019-06-08T02:37:16.104Z,99.90
2019-06-08T02:39:46.224Z,99.90
2019-06-08T02:42:16.251Z,99.90
2019-06-08T02:44:46.297Z,99.90
2019-06-08T02:47:16.548Z,99.90
2019-06-08T02:49:46.794Z,99.90
2019-06-08T02:52:17.003Z,99.90
2019-06-08T02:54:47.486Z,99.90
2019-06-08T02:57:19.833Z,99.90
2019-06-08T02:59:53.002Z,99.90
2019-06-08T03:02:26.599Z,99.90
2019-06-08T03:04:59.486Z,99.90
2019-06-08T03:07:34.356Z,99.90
2019-06-08T03:10:05.160Z,99.90
2019-06-08T03:12:40.300Z,99.90
2019-06-08T03:15:10.344Z,99.90
2019-06-08T03:17:41.896Z,99.90
2019-06-08T03:20:14.275Z,99.90
2019-06-08T03:22:44.832Z,99.90
2019-06-08T03:25:16.665Z,99.90
2019-06-08T03:27:46.976Z,99.90
2019-06-08T03:30:19.470Z,99.90
2019-06-08T03:32:56.554Z,99.90
2019-06-08T03:35:26.359Z,99.90
2019-06-08T03:37:56.690Z,99.90
2019-06-08T03:40:28.038Z,99.90
2019-06-08T03:42:59.797Z,99.90
2019-06-08T03:45:29.822Z,99.90
2019-06-08T03:47:59.906Z,99.90
2019-06-08T03:50:30.184Z,99.90
2019-06-08T03:53:01.064Z,99.90
2019-06-08T03:55:31.481Z,99.90
2019-06-08T03:58:02.696Z,99.90
2019-06-08T04:00:32.765Z,99.90
2019-06-08T04:03:02.882Z,99.90
2019-06-08T04:05:33.577Z,99.90
2019-06-08T04:08:03.756Z,99.90
2019-06-08T04:10:33.996Z,99.90
2019-06-08T04:13:04.231Z,99.90
2019-06-08T04:15:34.310Z,99.90
2019-06-08T04:18:04.484Z,99.90
2019-06-08T04:20:34.587Z,99.90
2019-06-08T04:23:04.779Z,99.90
2019-06-08T04:25:35.005Z,99.90
2019-06-08T04:28:06.219Z,99.90
2019-06-08T04:30:40.541Z,99.90
2019-06-08T04:33:10.724Z,99.90
2019-06-08T04:35:42.523Z,99.90
2019-06-08T04:38:12.539Z,99.90
2019-06-08T04:40:44.086Z,99.90
2019-06-08T04:43:15.357Z,99.90
2019-06-08T04:45:47.505Z,99.90
2019-06-08T04:48:17.438Z,99.90
2019-06-08T04:50:49.942Z,99.90
2019-06-08T04:53:20.146Z,99.90
2019-06-08T04:55:50.295Z,99.90
2019-06-08T04:58:20.344Z,99.90
2019-06-08T05:00:53.149Z,99.90
2019-06-08T05:03:23.247Z,99.90
2019-06-08T05:05:53.464Z,99.90
2019-06-08T05:08:26.613Z,99.90
2019-06-08T05:10:56.808Z,99.90
2019-06-08T05:13:27.119Z,99.90
2019-06-08T05:15:57.264Z,99.90
2019-06-08T05:18:27.383Z,99.90
2019-06-08T05:20:57.588Z,99.90
2019-06-08T05:23:28.000Z,99.90
2019-06-08T05:25:58.143Z,99.90
2019-06-08T05:28:28.196Z,99.90
2019-06-08T05:31:01.509Z,99.90
2019-06-08T05:33:31.589Z,99.90
2019-06-08T05:36:01.836Z,99.90
2019-06-08T05:38:32.923Z,99.90
2019-06-08T05:41:03.349Z,99.90
2019-06-08T05:43:33.486Z,99.90
2019-06-08T05:46:05.676Z,99.90
2019-06-08T05:48:36.651Z,99.90
2019-06-08T05:51:09.803Z,99.90
2019-06-08T05:53:43.788Z,99.90
2019-06-08T05:56:14.096Z,99.90
2019-06-08T05:58:44.331Z,99.90
2019-06-08T06:01:14.463Z,99.90
2019-06-08T06:03:44.633Z,99.90
2019-06-08T06:06:14.860Z,99.90
2019-06-08T06:08:46.617Z,99.90
2019-06-08T06:11:16.787Z,99.90
2019-06-08T06:13:47.455Z,99.90
2019-06-08T06:16:17.725Z,99.90
2019-06-08T06:18:49.145Z,99.90
2019-06-08T06:21:19.497Z,99.90
2019-06-08T06:23:51.542Z,99.90
2019-06-08T06:26:21.404Z,99.90
2019-06-08T06:28:51.914Z,99.90
2019-06-08T06:31:22.359Z,99.90
2019-06-08T06:33:52.674Z,99.90
2019-06-08T06:36:23.204Z,99.90
2019-06-08T06:38:53.568Z,99.90
2019-06-08T06:41:23.727Z,99.90
2019-06-08T06:43:53.801Z,99.90
2019-06-08T06:46:24.598Z,99.90
2019-06-08T06:48:54.806Z,99.90
2019-06-08T06:51:26.702Z,99.90
2019-06-08T06:53:56.876Z,99.90
2019-06-08T06:56:30.207Z,99.90
2019-06-08T06:59:00.326Z,99.90
2019-06-08T07:01:30.877Z,99.90
2019-06-08T07:04:01.888Z,99.90
2019-06-08T07:06:32.032Z,99.90
2019-06-08T07:09:02.278Z,99.90
2019-06-08T07:11:32.600Z,99.90
2019-06-08T07:14:02.924Z,99.90
2019-06-08T07:16:33.950Z,99.90
2019-06-08T07:19:04.294Z,99.90
2019-06-08T07:21:41.633Z,99.90
2019-06-08T07:24:08.343Z,99.90
2019-06-08T07:26:38.601Z,99.90
2019-06-08T07:29:08.763Z,99.90
2019-06-08T07:31:38.981Z,99.90
2019-06-08T07:34:09.111Z,99.90
2019-06-08T07:36:40.678Z,99.90
2019-06-08T07:39:10.900Z,99.90
2019-06-08T07:41:44.544Z,99.90
2019-06-08T07:44:14.755Z,99.90
2019-06-08T07:46:44.913Z,99.90
2019-06-08T07:49:15.595Z,99.90
2019-06-08T07:51:58.878Z,99.90
2019-06-08T07:54:17.705Z,99.90
2019-06-08T07:56:51.414Z,99.90
2019-06-08T07:59:21.942Z,99.90
2019-06-08T08:01:52.419Z,99.90
2019-06-08T08:04:22.542Z,99.90
2019-06-08T08:06:54.564Z,99.90
2019-06-08T08:09:24.782Z,99.90
2019-06-08T08:11:59.618Z,99.90
2019-06-08T08:14:29.882Z,99.90
2019-06-08T08:17:00.155Z,99.90
2019-06-08T08:19:30.174Z,99.90
2019-06-08T08:22:18.514Z,99.90
2019-06-08T08:24:33.926Z,99.90
2019-06-08T08:27:04.279Z,99.90
2019-06-08T08:29:34.542Z,99.90
2019-06-08T08:32:04.694Z,99.90
2019-06-08T08:34:34.722Z,99.90
2019-06-08T08:37:08.751Z,99.90
2019-06-08T08:39:37.639Z,99.90
2019-06-08T08:42:08.620Z,99.90
2019-06-08T08:44:39.148Z,99.90
2019-06-08T08:47:09.304Z,99.90
2019-06-08T08:49:39.396Z,99.90
2019-06-08T08:52:11.550Z,99.90
2019-06-08T08:54:42.823Z,99.90
2019-06-08T08:57:14.942Z,99.90
2019-06-08T08:59:50.164Z,99.90
2019-06-08T09:02:21.127Z,99.90
2019-06-08T09:04:48.569Z,99.90
2019-06-08T09:07:18.661Z,99.90
2019-06-08T09:09:48.706Z,99.90
2019-06-08T09:12:18.920Z,99.90
2019-06-08T09:14:49.483Z,99.90
2019-06-08T09:17:19.839Z,99.90
2019-06-08T09:19:52.374Z,99.90
2019-06-08T09:22:22.437Z,99.90
2019-06-08T09:24:54.116Z,99.90
2019-06-08T09:27:24.682Z,99.90
2019-06-08T09:29:56.557Z,99.90
2019-06-08T09:32:28.218Z,99.90
2019-06-08T09:35:02.300Z,99.90
2019-06-08T09:37:30.341Z,99.90
2019-06-08T09:40:04.951Z,99.90
2019-06-08T09:42:35.058Z,99.90
2019-06-08T09:45:08.544Z,99.90
2019-06-08T09:47:38.181Z,99.90
2019-06-08T09:50:09.476Z,99.90
2019-06-08T09:52:41.386Z,99.90
2019-06-08T09:55:12.478Z,99.90
2019-06-08T09:57:42.646Z,99.90
2019-06-08T10:00:18.183Z,99.90
2019-06-08T10:02:47.857Z,99.90
2019-06-08T10:05:18.567Z,99.90
2019-06-08T10:07:49.386Z,99.90
2019-06-08T10:10:19.818Z,99.90
2019-06-08T10:12:50.092Z,99.90
2019-06-08T10:15:21.986Z,99.90
2019-06-08T10:17:56.862Z,99.90
2019-06-08T10:20:28.812Z,99.90
2019-06-08T10:23:05.121Z,99.90
2019-06-08T10:25:34.913Z,99.90
2019-06-08T10:28:11.281Z,99.90
2019-06-08T10:30:38.406Z,99.90
2019-06-08T10:33:10.075Z,99.90
2019-06-08T10:35:40.440Z,99.90
2019-06-08T10:38:11.971Z,99.90
2019-06-08T10:41:06.447Z,99.90
2019-06-08T10:43:33.310Z,99.90
2019-06-08T10:46:09.982Z,99.90
2019-06-08T10:48:37.749Z,99.90
2019-06-08T10:51:11.206Z,99.90
2019-06-08T10:53:48.439Z,99.90
2019-06-08T10:56:15.064Z,99.90
2019-06-08T10:58:49.483Z,99.90
2019-06-08T11:01:18.774Z,99.90
2019-06-08T11:03:49.188Z,99.90
2019-06-08T11:06:19.348Z,99.90
2019-06-08T11:08:49.589Z,99.90
2019-06-08T11:11:20.546Z,99.90
2019-06-08T11:13:50.993Z,99.90
2019-06-08T11:16:21.156Z,99.90
2019-06-08T11:18:54.840Z,99.90
2019-06-08T11:21:25.303Z,99.90
2019-06-08T11:24:07.509Z,99.90
2019-06-08T11:26:28.900Z,99.90
2019-06-08T11:29:01.101Z,99.90
2019-06-08T11:31:32.346Z,99.90
2019-06-08T11:34:03.969Z,99.90
2019-06-08T11:36:34.372Z,99.90
2019-06-08T11:39:09.120Z,99.90
2019-06-08T11:41:38.113Z,99.90
2019-06-08T11:44:12.484Z,99.90
2019-06-08T11:46:42.557Z,99.90
2019-06-08T11:49:14.823Z,99.90
2019-06-08T11:51:44.293Z,99.90
2019-06-08T11:54:32.008Z,99.90
2019-06-08T11:56:48.842Z,99.90
2019-06-08T11:59:19.825Z,99.90
2019-06-08T12:01:50.549Z,99.90
2019-06-08T12:04:20.879Z,99.90
2019-06-08T12:06:51.676Z,99.90
2019-06-08T12:09:23.197Z,99.90
2019-06-08T12:11:53.325Z,99.90
2019-06-08T12:14:23.575Z,99.90
2019-06-08T12:16:53.653Z,99.90
2019-06-08T12:19:25.189Z,99.90
2019-06-08T12:21:58.020Z,99.90
2019-06-08T12:24:40.922Z,99.90
2019-06-08T12:27:10.725Z,99.90
2019-06-08T12:29:32.100Z,99.90
2019-06-08T12:32:02.250Z,99.90
2019-06-08T12:34:32.707Z,99.90
2019-06-08T12:37:03.401Z,99.90
2019-06-08T12:39:33.777Z,99.90
2019-06-08T12:42:03.849Z,99.90
2019-06-08T12:44:34.696Z,99.90
2019-06-08T12:47:12.620Z,99.90
2019-06-08T12:49:40.389Z,99.90
2019-06-08T12:52:12.808Z,99.90
2019-06-08T12:54:56.442Z,99.90
2019-06-08T12:57:16.945Z,99.90
2019-06-08T12:59:46.301Z,99.90
2019-06-08T13:02:22.030Z,99.90
2019-06-08T13:04:48.149Z,99.90
2019-06-08T13:07:19.023Z,99.90
2019-06-08T13:09:49.367Z,99.90
2019-06-08T13:12:21.278Z,99.90
2019-06-08T13:14:51.541Z,99.90
2019-06-08T13:17:21.941Z,99.90
2019-06-08T13:19:53.682Z,99.90
2019-06-08T13:22:28.142Z,99.90
2019-06-08T13:24:55.598Z,99.90
2019-06-08T13:27:28.058Z,99.90
2019-06-08T13:30:03.081Z,99.90
2019-06-08T13:32:33.261Z,99.90
2019-06-08T13:35:03.543Z,99.90
2019-06-08T13:37:34.096Z,99.90
2019-06-08T13:40:04.506Z,99.90
2019-06-08T13:42:34.802Z,99.90
2019-06-08T13:45:07.546Z,99.90
2019-06-08T13:47:41.494Z,99.90
2019-06-08T13:50:14.498Z,99.90
2019-06-08T13:52:44.690Z,99.90
2019-06-08T13:55:34.670Z,99.90
2019-06-08T13:57:49.198Z,99.90
2019-06-08T14:00:24.801Z,99.90
2019-06-08T14:02:55.111Z,99.90
2019-06-08T14:05:30.884Z,99.90
2019-06-08T14:08:01.168Z,99.90
2019-06-08T14:10:38.529Z,99.90
2019-06-08T14:13:08.544Z,99.90
2019-06-08T14:15:38.939Z,99.90
2019-06-08T14:18:09.154Z,99.90
2019-06-08T14:20:39.258Z,99.90
2019-06-08T14:23:09.431Z,99.90
2019-06-08T14:25:50.699Z,99.90
2019-06-08T14:28:11.350Z,99.90
2019-06-08T14:30:41.493Z,99.90
2019-06-08T14:33:11.611Z,99.90
2019-06-08T14:35:41.895Z,99.90
2019-06-08T14:38:12.062Z,99.90
2019-06-08T14:40:42.223Z,99.90
2019-06-08T14:43:12.480Z,99.90
2019-06-08T14:45:42.697Z,99.90
2019-06-08T14:48:12.901Z,99.90
2019-06-08T14:50:44.792Z,99.90
2019-06-08T14:53:15.446Z,99.90
2019-06-08T14:55:45.535Z,99.90
2019-06-08T14:58:18.652Z,99.90
2019-06-08T15:00:48.821Z,99.90
2019-06-08T15:03:19.780Z,99.90
2019-06-08T15:05:49.974Z,99.90
2019-06-08T15:08:20.073Z,99.90
2019-06-08T15:10:57.844Z,99.90
2019-06-08T15:13:28.597Z,99.90
2019-06-08T15:16:02.656Z,99.90
2019-06-08T15:18:32.739Z,99.90
2019-06-08T15:21:03.466Z,99.20
2019-06-08T15:23:36.510Z,98.10
2019-06-08T15:26:20.440Z,98.70
2019-06-08T15:28:41.110Z,99.60
2019-06-08T15:31:12.142Z,99.90
2019-06-08T15:33:44.723Z,99.60
2019-06-08T15:36:14.815Z,98.90
2019-06-08T15:38:44.857Z,97.50
2019-06-08T15:41:21.433Z,97.00
2019-06-08T15:43:50.039Z,96.20
2019-06-08T15:46:22.012Z,96.10
2019-06-08T15:48:52.532Z,96.90
2019-06-08T15:51:22.703Z,96.90
2019-06-08T15:53:54.213Z,96.30
2019-06-08T15:56:40.140Z,96.70
2019-06-08T15:58:58.424Z,97.30
2019-06-08T16:01:29.329Z,97.30
2019-06-08T16:03:59.683Z,96.80
2019-06-08T16:06:29.793Z,97.20
2019-06-08T16:08:59.912Z,97.50
2019-06-08T16:11:30.318Z,97.50
2019-06-08T16:14:00.506Z,98.10
2019-06-08T16:16:31.163Z,99.10
2019-06-08T16:19:06.986Z,99.80
2019-06-08T16:21:37.267Z,99.90
2019-06-08T16:24:07.468Z,99.60
2019-06-08T16:26:52.231Z,99.70
2019-06-08T16:29:10.925Z,99.50
2019-06-08T16:31:44.105Z,99.20
2019-06-08T16:34:14.381Z,98.60
2019-06-08T16:36:44.651Z,98.70
2019-06-08T16:39:14.838Z,98.60
2019-06-08T16:41:45.365Z,98.60
2019-06-08T16:44:15.559Z,99.90
2019-06-08T16:46:45.705Z,99.90
2019-06-08T16:49:15.929Z,99.90
2019-06-08T16:51:46.201Z,99.90
2019-06-08T16:54:18.500Z,99.90
2019-06-08T16:56:48.939Z,99.90
2019-06-08T16:59:19.162Z,99.10
2019-06-08T17:01:53.713Z,99.40
2019-06-08T17:04:23.892Z,99.90
2019-06-08T17:06:54.920Z,99.50
2019-06-08T17:09:25.069Z,98.90
2019-06-08T17:11:55.578Z,97.70
2019-06-08T17:14:25.679Z,96.40
2019-06-08T17:16:55.915Z,96.10
2019-06-08T17:19:26.200Z,95.80
2019-06-08T17:21:57.898Z,94.80
2019-06-08T17:24:28.134Z,94.00
2019-06-08T17:26:58.378Z,93.70
2019-06-08T17:29:30.728Z,93.70
2019-06-08T17:32:01.012Z,92.90
2019-06-08T17:34:31.747Z,92.80
2019-06-08T17:37:02.172Z,92.50
2019-06-08T17:39:33.745Z,92.60
2019-06-08T17:42:04.126Z,92.70
2019-06-08T17:44:34.923Z,92.40
2019-06-08T17:47:05.681Z,92.30
2019-06-08T17:49:36.766Z,92.50
2019-06-08T17:52:07.033Z,92.80
2019-06-08T17:54:37.238Z,93.50
2019-06-08T17:57:07.617Z,93.40
2019-06-08T17:59:37.746Z,94.20
2019-06-08T18:02:13.733Z,95.10
2019-06-08T18:04:43.154Z,96.20
2019-06-08T18:07:14.126Z,97.40
2019-06-08T18:09:45.198Z,98.80
2019-06-08T18:12:18.131Z,99.70
2019-06-08T18:14:48.017Z,99.90
2019-06-08T18:17:18.903Z,99.90
2019-06-08T18:19:49.717Z,99.90
2019-06-08T18:22:23.026Z,99.90
2019-06-08T18:24:53.203Z,99.90
2019-06-08T18:27:23.412Z,99.90
2019-06-08T18:29:53.488Z,99.90
2019-06-08T18:32:23.763Z,99.90
2019-06-08T18:34:54.296Z,99.90
2019-06-08T18:37:24.562Z,99.90
2019-06-08T18:39:54.717Z,99.90
2019-06-08T18:42:26.893Z,99.90
2019-06-08T18:44:58.290Z,99.90
2019-06-08T18:47:30.933Z,99.90
2019-06-08T18:50:01.173Z,99.90
2019-06-08T18:52:32.924Z,99.90
2019-06-08T18:55:03.100Z,99.90
2019-06-08T18:57:33.336Z,99.90
2019-06-08T19:00:08.358Z,99.90
2019-06-08T19:02:39.732Z,99.90
2019-06-08T19:05:08.429Z,99.90
2019-06-08T19:07:39.453Z,99.90
2019-06-08T19:10:09.766Z,99.90
2019-06-08T19:12:41.426Z,99.90
2019-06-08T19:15:11.713Z,99.90
2019-06-08T19:17:48.215Z,99.90
2019-06-08T19:20:14.076Z,99.90
2019-06-08T19:22:48.580Z,99.90
2019-06-08T19:25:17.614Z,99.90
2019-06-08T19:27:53.181Z,99.90
2019-06-08T19:30:20.305Z,99.90
2019-06-08T19:32:52.558Z,99.90
2019-06-08T19:35:27.422Z,99.90
2019-06-08T19:37:58.362Z,99.90
2019-06-08T19:40:28.585Z,99.90
2019-06-08T19:43:01.435Z,99.90
2019-06-08T19:45:30.567Z,99.90
2019-06-08T19:48:00.679Z,99.90
2019-06-08T19:50:32.591Z,99.90
2019-06-08T19:53:04.498Z,99.90
2019-06-08T19:55:34.804Z,99.90
2019-06-08T19:58:05.200Z,99.90
2019-06-08T20:00:35.402Z,99.90
2019-06-08T20:03:08.888Z,99.90
2019-06-08T20:05:41.144Z,99.90
2019-06-08T20:08:11.812Z,99.90
2019-06-08T20:10:43.017Z,99.90
2019-06-08T20:13:13.334Z,99.90
2019-06-08T20:15:47.335Z,99.90
2019-06-08T20:18:17.220Z,99.90
2019-06-08T20:20:50.796Z,99.90
2019-06-08T20:23:19.279Z,99.90
2019-06-08T20:25:51.294Z,99.90
2019-06-08T20:28:21.286Z,99.90
2019-06-08T20:30:52.617Z,99.90
2019-06-08T20:33:27.059Z,99.90
2019-06-08T20:35:58.835Z,99.90
2019-06-08T20:38:37.772Z,99.90
2019-06-08T20:41:00.926Z,99.90
2019-06-08T20:43:31.114Z,99.90
2019-06-08T20:46:01.306Z,99.90
2019-06-08T20:48:38.583Z,99.90
2019-06-08T20:51:08.702Z,99.90
2019-06-08T20:53:38.960Z,99.90
2019-06-08T20:56:09.151Z,99.90
2019-06-08T20:58:39.252Z,99.90
2019-06-08T21:01:09.370Z,99.90
2019-06-08T21:03:39.590Z,99.90
2019-06-08T21:06:11.449Z,99.90
2019-06-08T21:08:41.618Z,99.90
2019-06-08T21:11:11.791Z,99.90
2019-06-08T21:13:42.026Z,99.90
2019-06-08T21:16:12.259Z,99.90
2019-06-08T21:18:42.372Z,99.90
2019-06-08T21:21:12.651Z,99.90
2019-06-08T21:23:42.858Z,99.90
2019-06-08T21:26:12.962Z,99.90
2019-06-08T21:28:43.254Z,99.90
2019-06-08T21:31:13.468Z,99.90
2019-06-08T21:33:43.663Z,99.90
2019-06-08T21:36:13.774Z,99.90
2019-06-08T21:38:43.952Z,99.90
2019-06-08T21:41:14.343Z,99.90
2019-06-08T21:43:44.489Z,99.90
2019-06-08T21:46:14.593Z,99.90
2019-06-08T21:48:44.899Z,99.90
2019-06-08T21:51:15.646Z,99.90
2019-06-08T21:53:48.355Z,99.90
2019-06-08T21:56:18.158Z,99.90
2019-06-08T21:58:49.731Z,99.90
2019-06-08T22:01:20.584Z,99.90
2019-06-08T22:03:51.692Z,99.90
2019-06-08T22:06:21.805Z,99.90
2019-06-08T22:08:52.405Z,99.90
2019-06-08T22:11:22.525Z,99.90
2019-06-08T22:13:53.087Z,99.90
2019-06-08T22:16:23.190Z,99.90
2019-06-08T22:18:53.345Z,99.90
2019-06-08T22:21:23.439Z,99.90
2019-06-08T22:23:53.736Z,99.90
2019-06-08T22:26:23.885Z,99.90
2019-06-08T22:28:53.991Z,99.90
2019-06-08T22:31:24.106Z,99.90
2019-06-08T22:33:55.911Z,99.90
2019-06-08T22:36:27.567Z,99.90
2019-06-08T22:39:00.577Z,99.90
2019-06-08T22:41:29.728Z,99.90
2019-06-08T22:44:00.983Z,99.90
2019-06-08T22:46:31.291Z,99.90
2019-06-08T22:49:03.902Z,99.90
2019-06-08T22:51:34.091Z,99.90
2019-06-08T22:54:07.822Z,99.90
2019-06-08T22:56:37.318Z,99.90
2019-06-08T22:59:09.271Z,99.90
2019-06-08T23:01:39.303Z,99.90
2019-06-08T23:04:09.379Z,99.90
2019-06-08T23:06:39.461Z,99.90
2019-06-08T23:09:09.670Z,99.90
2019-06-08T23:11:39.857Z,99.90
2019-06-08T23:14:13.297Z,99.90
2019-06-08T23:16:41.779Z,99.90
2019-06-08T23:19:11.918Z,99.90
2019-06-08T23:21:42.274Z,99.90
2019-06-08T23:24:12.350Z,99.90
2019-06-08T23:26:42.393Z,99.90
2019-06-08T23:29:12.482Z,99.90
2019-06-08T23:31:42.600Z,99.90
2019-06-08T23:34:18.164Z,99.90
2019-06-08T23:36:57.898Z,99.90
2019-06-08T23:39:21.610Z,99.90
2019-06-08T23:41:51.731Z,99.90
2019-06-08T23:44:22.141Z,99.90
2019-06-08T23:46:52.375Z,99.90
2019-06-08T23:49:22.550Z,99.90
2019-06-08T23:51:52.676Z,99.90
2019-06-08T23:54:27.830Z,99.90
2019-06-08T23:56:57.218Z,99.90
2019-06-08T23:59:27.740Z,99.90
